Time,TemperatureF,DewpointF,PressureIn,WindDirection,WindDirectionDegrees,WindSpeedMPH,WindSpeedGustMPH,Humidity,HourlyPrecipIn,Conditions,Clouds,dailyrainin,SoftwareType,DateUTC
2013-10-28 00:12:00,34.0,32.0,30.09,West,268,0.0,0.0,91,0.00,,,0.00,weatherlink.com 1.10,2013-10-28 04:12:00,
2013-10-28 00:27:00,33.7,32.0,30.09,West,268,0.0,0.0,92,0.00,,,0.00,weatherlink.com 1.10,2013-10-28 04:27:00,
2013-10-28 00:42:00,33.5,32.0,30.09,West,268,0.0,0.0,92,0.00,,,0.00,weatherlink.com 1.10,2013-10-28 04:42:00,
2013-10-28 00:57:00,33.3,31.0,30.09,West,268,0.0,0.0,92,0.00,,,0.00,weatherlink.com 1.10,2013-10-28 04:57:00,
2013-10-28 01:12:00,33.1,31.0,30.09,West,268,0.0,0.0,93,0.00,,,0.00,weatherlink.com 1.10,2013-10-28 05:12:00,
2013-10-28 01:27:00,32.8,31.0,30.09,West,268,0.0,0.0,93,0.00,,,0.00,weatherlink.com 1.10,2013-10-28 05:27:00,
2013-10-28 01:42:00,32.5,31.0,30.10,West,268,0.0,0.0,93,0.00,,,0.00,weatherlink.com 1.10,2013-10-28 05:42:00,
2013-10-28 01:57:00,32.3,31.0,30.10,West,268,0.0,0.0,93,0.00,,,0.00,weatherlink.com 1.10,2013-10-28 05:57:00,
2013-10-28 02:13:00,32.1,30.0,30.10,West,268,0.0,0.0,93,0.00,,,0.00,weatherlink.com 1.10,2013-10-28 06:13:00,
2013-10-28 02:28:00,31.8,30.0,30.11,West,268,0.0,0.0,94,0.00,,,0.00,weatherlink.com 1.10,2013-10-28 06:28:00,
2013-10-28 02:43:00,31.7,30.0,30.12,West,268,0.0,0.0,94,0.00,,,0.00,weatherlink.com 1.10,2013-10-28 06:43:00,
2013-10-28 02:58:00,31.7,30.0,30.12,West,268,0.0,0.0,94,0.00,,,0.00,weatherlink.com 1.10,2013-10-28 06:58:00,
2013-10-28 03:13:00,31.5,30.0,30.11,West,268,0.0,0.0,94,0.00,,,0.00,weatherlink.com 1.10,2013-10-28 07:13:00,
2013-10-28 03:28:00,31.3,30.0,30.12,West,268,0.0,0.0,94,0.00,,,0.00,weatherlink.com 1.10,2013-10-28 07:28:00,
2013-10-28 03:43:00,31.2,30.0,30.12,West,268,0.0,0.0,94,0.00,,,0.00,weatherlink.com 1.10,2013-10-28 07:43:00,
2013-10-28 03:58:00,31.0,30.0,30.13,West,268,0.0,0.0,94,0.00,,,0.00,weatherlink.com 1.10,2013-10-28 07:58:00,
2013-10-28 04:13:00,30.9,29.0,30.13,West,268,0.0,0.0,94,0.00,,,0.00,weatherlink.com 1.10,2013-10-28 08:13:00,
2013-10-28 04:28:00,30.8,30.0,30.13,West,268,0.0,0.0,95,0.00,,,0.00,weatherlink.com 1.10,2013-10-28 08:28:00,
2013-10-28 04:43:00,30.8,30.0,30.13,West,268,0.0,0.0,95,0.00,,,0.00,weatherlink.com 1.10,2013-10-28 08:43:00,
2013-10-28 04:58:00,30.7,30.0,30.13,West,268,0.0,0.0,95,0.00,,,0.00,weatherlink.com 1.10,2013-10-28 08:58:00,
2013-10-28 05:13:00,30.7,30.0,30.13,West,268,0.0,0.0,95,0.00,,,0.00,weatherlink.com 1.10,2013-10-28 09:13:00,
2013-10-28 05:28:00,30.6,29.0,30.13,West,268,0.0,0.0,95,0.00,,,0.00,weatherlink.com 1.10,2013-10-28 09:28:00,
2013-10-28 05:43:00,30.5,29.0,30.13,West,268,0.0,0.0,95,0.00,,,0.00,weatherlink.com 1.10,2013-10-28 09:43:00,
2013-10-28 05:58:00,30.5,29.0,30.14,West,272,0.0,0.0,95,0.00,,,0.00,weatherlink.com 1.10,2013-10-28 09:58:00,
2013-10-28 06:13:00,30.5,29.0,30.15,West,272,0.0,0.0,95,0.00,,,0.00,weatherlink.com 1.10,2013-10-28 10:13:00,
2013-10-28 06:28:00,30.5,29.0,30.15,West,272,0.0,0.0,95,0.00,,,0.00,weatherlink.com 1.10,2013-10-28 10:28:00,
2013-10-28 06:43:00,30.2,29.0,30.15,West,272,0.0,0.0,95,0.00,,,0.00,weatherlink.com 1.10,2013-10-28 10:43:00,
2013-10-28 06:58:00,30.1,29.0,30.16,West,272,0.0,0.0,95,0.00,,,0.00,weatherlink.com 1.10,2013-10-28 10:58:00,
2013-10-28 07:13:00,29.8,29.0,30.16,West,272,0.0,0.0,95,0.00,,,0.00,weatherlink.com 1.10,2013-10-28 11:13:00,
2013-10-28 07:28:00,29.8,29.0,30.17,West,272,0.0,0.0,95,0.00,,,0.00,weatherlink.com 1.10,2013-10-28 11:28:00,
2013-10-28 07:43:00,29.6,28.0,30.18,West,272,0.0,0.0,95,0.00,,,0.00,weatherlink.com 1.10,2013-10-28 11:43:00,
2013-10-28 07:58:00,29.5,28.0,30.18,West,272,0.0,0.0,95,0.00,,,0.00,weatherlink.com 1.10,2013-10-28 11:58:00,
2013-10-28 08:13:00,29.3,28.0,30.18,West,272,0.0,0.0,95,0.00,,,0.00,weatherlink.com 1.10,2013-10-28 12:13:00,
2013-10-28 08:28:00,29.2,28.0,30.20,West,272,0.0,0.0,95,0.00,,,0.00,weatherlink.com 1.10,2013-10-28 12:28:00,
2013-10-28 08:43:00,29.2,28.0,30.20,West,272,0.0,0.0,95,0.00,,,0.00,weatherlink.com 1.10,2013-10-28 12:43:00,
2013-10-28 08:58:00,29.8,29.0,30.21,West,272,0.0,0.0,96,0.00,,,0.00,weatherlink.com 1.10,2013-10-28 12:58:00,
2013-10-28 09:13:00,30.7,30.0,30.21,West,272,0.0,0.0,96,0.00,,,0.00,weatherlink.com 1.10,2013-10-28 13:13:00,
2013-10-28 09:28:00,31.6,31.0,30.22,West,272,0.0,0.0,97,0.00,,,0.00,weatherlink.com 1.10,2013-10-28 13:28:00,
2013-10-28 09:43:00,32.7,32.0,30.22,West,272,0.0,0.0,97,0.00,,,0.00,weatherlink.com 1.10,2013-10-28 13:43:00,
2013-10-28 09:58:00,34.6,34.0,30.23,West,272,0.0,0.0,97,0.00,,,0.00,weatherlink.com 1.10,2013-10-28 13:58:00,
2013-10-28 10:13:00,38.3,38.0,30.23,West,272,0.0,0.0,97,0.00,,,0.00,weatherlink.com 1.10,2013-10-28 14:13:00,
2013-10-28 10:28:00,41.4,39.0,30.23,West,272,0.0,0.0,91,0.00,,,0.00,weatherlink.com 1.10,2013-10-28 14:28:00,
2013-10-28 10:44:00,44.7,40.0,30.23,West,272,0.0,1.0,84,0.00,,,0.00,weatherlink.com 1.10,2013-10-28 14:44:00,
2013-10-28 10:59:00,47.2,41.0,30.23,WNW,298,0.0,2.0,78,0.00,,,0.00,weatherlink.com 1.10,2013-10-28 14:59:00,
2013-10-28 11:14:00,50.4,41.0,30.24,NE,34,4.0,5.0,70,0.00,,,0.00,weatherlink.com 1.10,2013-10-28 15:14:00,
2013-10-28 11:29:00,52.0,41.0,30.24,NNE,32,0.0,4.0,67,0.00,,,0.00,weatherlink.com 1.10,2013-10-28 15:29:00,
2013-10-28 11:44:00,53.8,40.0,30.23,ENE,58,0.0,2.0,60,0.00,,,0.00,weatherlink.com 1.10,2013-10-28 15:44:00,
2013-10-28 11:59:00,55.7,39.0,30.23,NE,38,1.0,7.0,54,0.00,,,0.00,weatherlink.com 1.10,2013-10-28 15:59:00,
2013-10-28 12:14:00,56.7,39.0,30.23,SSE,163,3.0,5.0,51,0.00,,,0.00,weatherlink.com 1.10,2013-10-28 16:14:00,
2013-10-28 12:29:00,57.5,37.0,30.23,ENE,66,7.0,11.0,47,0.00,,,0.00,weatherlink.com 1.10,2013-10-28 16:29:00,
2013-10-28 12:44:00,58.7,37.0,30.23,East,88,2.0,8.0,45,0.00,,,0.00,weatherlink.com 1.10,2013-10-28 16:44:00,
2013-10-28 12:59:00,60.7,37.0,30.23,NNW,344,3.0,7.0,42,0.00,,,0.00,weatherlink.com 1.10,2013-10-28 16:59:00,
2013-10-28 13:14:00,61.6,39.0,30.22,ENE,57,3.0,8.0,44,0.00,,,0.00,weatherlink.com 1.10,2013-10-28 17:14:00,
2013-10-28 13:29:00,63.2,38.0,30.21,ESE,103,2.0,4.0,39,0.00,,,0.00,weatherlink.com 1.10,2013-10-28 17:29:00,
2013-10-28 13:44:00,63.2,38.0,30.21,ENE,74,1.0,6.0,40,0.00,,,0.00,weatherlink.com 1.10,2013-10-28 17:44:00,
2013-10-28 13:59:00,65.1,38.0,30.21,North,5,0.0,5.0,37,0.00,,,0.00,weatherlink.com 1.10,2013-10-28 17:59:00,
2013-10-28 14:14:00,66.1,38.0,30.20,WSW,237,0.0,5.0,36,0.00,,,0.00,weatherlink.com 1.10,2013-10-28 18:14:00,
2013-10-28 14:29:00,67.0,39.0,30.20,NE,53,5.0,7.0,36,0.00,,,0.00,weatherlink.com 1.10,2013-10-28 18:29:00,
2013-10-28 14:44:00,67.2,36.0,30.19,North,5,0.0,7.0,32,0.00,,,0.00,weatherlink.com 1.10,2013-10-28 18:44:00,
2013-10-28 14:59:00,67.6,37.0,30.19,NNE,21,6.0,7.0,32,0.00,,,0.00,weatherlink.com 1.10,2013-10-28 18:59:00,
2013-10-28 15:14:00,67.5,36.0,30.18,North,355,2.0,8.0,31,0.00,,,0.00,weatherlink.com 1.10,2013-10-28 19:14:00,
2013-10-28 15:29:00,68.3,37.0,30.19,NNE,29,1.0,3.0,32,0.00,,,0.00,weatherlink.com 1.10,2013-10-28 19:29:00,
2013-10-28 15:45:00,69.1,35.0,30.18,NE,48,1.0,4.0,29,0.00,,,0.00,weatherlink.com 1.10,2013-10-28 19:45:00,
2013-10-28 16:00:00,69.4,37.0,30.19,NE,36,0.0,5.0,31,0.00,,,0.00,weatherlink.com 1.10,2013-10-28 20:00:00,
2013-10-28 16:15:00,69.2,36.0,30.19,NNE,18,0.0,3.0,30,0.00,,,0.00,weatherlink.com 1.10,2013-10-28 20:15:00,
2013-10-28 16:30:00,66.4,35.0,30.19,NNW,345,0.0,4.0,31,0.00,,,0.00,weatherlink.com 1.10,2013-10-28 20:30:00,
2013-10-28 16:45:00,65.2,34.0,30.20,NNE,24,1.0,7.0,32,0.00,,,0.00,weatherlink.com 1.10,2013-10-28 20:45:00,
2013-10-28 17:00:00,64.7,34.0,30.20,NE,40,5.0,5.0,32,0.00,,,0.00,weatherlink.com 1.10,2013-10-28 21:00:00,
2013-10-28 17:15:00,65.7,36.0,30.20,NE,43,2.0,5.0,33,0.00,,,0.00,weatherlink.com 1.10,2013-10-28 21:15:00,
2013-10-28 17:30:00,66.9,35.0,30.21,NNE,31,2.0,5.0,31,0.00,,,0.00,weatherlink.com 1.10,2013-10-28 21:30:00,
2013-10-28 17:45:00,66.6,36.0,30.20,North,350,1.0,5.0,33,0.00,,,0.00,weatherlink.com 1.10,2013-10-28 21:45:00,
2013-10-28 18:00:00,65.8,37.0,30.21,North,355,0.0,1.0,35,0.00,,,0.00,weatherlink.com 1.10,2013-10-28 22:00:00,
2013-10-28 18:15:00,63.6,39.0,30.20,North,355,2.0,2.0,40,0.00,,,0.00,weatherlink.com 1.10,2013-10-28 22:15:00,
2013-10-28 18:30:00,60.9,38.0,30.21,North,355,1.0,2.0,43,0.00,,,0.00,weatherlink.com 1.10,2013-10-28 22:30:00,
2013-10-28 18:45:00,58.0,39.0,30.21,North,355,2.0,2.0,50,0.00,,,0.00,weatherlink.com 1.10,2013-10-28 22:45:00,
2013-10-28 19:00:00,55.6,39.0,30.22,North,355,1.0,2.0,55,0.00,,,0.00,weatherlink.com 1.10,2013-10-28 23:00:00,
2013-10-28 19:15:00,53.0,39.0,30.23,North,355,0.0,2.0,60,0.00,,,0.00,weatherlink.com 1.10,2013-10-28 23:15:00,
2013-10-28 19:30:00,51.0,39.0,30.23,North,355,0.0,1.0,63,0.00,,,0.00,weatherlink.com 1.10,2013-10-28 23:30:00,
2013-10-28 19:45:00,49.5,38.0,30.23,North,355,0.0,0.0,66,0.00,,,0.00,weatherlink.com 1.10,2013-10-28 23:45:00,
2013-10-28 20:00:00,48.2,38.0,30.24,North,355,0.0,0.0,69,0.00,,,0.00,weatherlink.com 1.10,2013-10-29 00:00:00,
2013-10-28 20:15:00,46.9,38.0,30.24,North,355,0.0,0.0,72,0.00,,,0.00,weatherlink.com 1.10,2013-10-29 00:15:00,
2013-10-28 20:30:00,45.9,38.0,30.24,North,355,0.0,0.0,73,0.00,,,0.00,weatherlink.com 1.10,2013-10-29 00:30:00,
2013-10-28 20:45:00,45.1,37.0,30.24,North,355,0.0,0.0,73,0.00,,,0.00,weatherlink.com 1.10,2013-10-29 00:45:00,
2013-10-28 21:00:00,44.3,37.0,30.25,North,355,0.0,0.0,75,0.00,,,0.00,weatherlink.com 1.10,2013-10-29 01:00:00,
2013-10-28 21:15:00,43.7,37.0,30.25,North,355,0.0,0.0,77,0.00,,,0.00,weatherlink.com 1.10,2013-10-29 01:15:00,
2013-10-28 21:30:00,42.9,36.0,30.26,North,355,0.0,0.0,78,0.00,,,0.00,weatherlink.com 1.10,2013-10-29 01:30:00,
2013-10-28 21:45:00,42.3,36.0,30.26,North,355,0.0,0.0,79,0.00,,,0.00,weatherlink.com 1.10,2013-10-29 01:45:00,
2013-10-28 22:00:00,41.7,36.0,30.26,North,355,0.0,0.0,79,0.00,,,0.00,weatherlink.com 1.10,2013-10-29 02:00:00,
2013-10-28 22:15:00,41.1,36.0,30.26,North,355,0.0,0.0,81,0.00,,,0.00,weatherlink.com 1.10,2013-10-29 02:15:00,
2013-10-28 22:30:00,40.5,35.0,30.27,North,355,0.0,0.0,82,0.00,,,0.00,weatherlink.com 1.10,2013-10-29 02:30:00,
2013-10-28 22:45:00,39.9,35.0,30.27,North,355,0.0,0.0,83,0.00,,,0.00,weatherlink.com 1.10,2013-10-29 02:45:00,
2013-10-28 23:00:00,39.5,35.0,30.28,North,355,0.0,0.0,83,0.00,,,0.00,weatherlink.com 1.10,2013-10-29 03:00:00,
2013-10-28 23:15:00,39.0,35.0,30.28,North,355,0.0,0.0,85,0.00,,,0.00,weatherlink.com 1.10,2013-10-29 03:15:00,
2013-10-28 23:30:00,38.5,34.0,30.28,North,355,0.0,0.0,85,0.00,,,0.00,weatherlink.com 1.10,2013-10-29 03:30:00,
2013-10-28 23:45:00,38.3,34.0,30.28,North,355,0.0,0.0,85,0.00,,,0.00,weatherlink.com 1.10,2013-10-29 03:45:00,